createdAt,value
2023-05-05T00:00:35.697Z,230.25
2023-05-05T00:01:35.732Z,230.05
2023-05-05T00:02:35.858Z,230.65
2023-05-05T00:03:35.949Z,232.43
2023-05-05T00:04:35.836Z,232.72
2023-05-05T00:05:35.902Z,232.84
2023-05-05T00:06:35.972Z,229.87
2023-05-05T00:07:36.052Z,232.71
2023-05-05T00:08:36.112Z,234.67
2023-05-05T00:09:36.221Z,234.28
2023-05-05T00:10:36.279Z,233.61
2023-05-05T00:11:36.348Z,233.63
2023-05-05T00:12:36.445Z,234.74
2023-05-05T00:13:36.592Z,234.12
2023-05-05T00:14:36.588Z,234.07
2023-05-05T00:15:36.665Z,234.42
2023-05-05T00:16:36.819Z,233.43
2023-05-05T00:17:36.832Z,233.22
2023-05-05T00:18:36.890Z,232.52
2023-05-05T00:19:36.985Z,233.62
2023-05-05T00:20:37.016Z,232.10
2023-05-05T00:21:37.134Z,232.01
2023-05-05T00:22:37.336Z,232.39
2023-05-05T00:23:37.302Z,231.54
2023-05-05T00:24:37.325Z,230.20
2023-05-05T00:25:37.521Z,229.74
2023-05-05T00:26:38.205Z,228.70
2023-05-05T00:27:40.178Z,227.39
2023-05-05T00:28:37.614Z,227.91
2023-05-05T00:29:37.616Z,227.29
2023-05-05T00:30:38.162Z,227.55
2023-05-05T00:31:37.745Z,227.86
2023-05-05T00:32:37.745Z,226.91
2023-05-05T00:33:37.682Z,227.90
2023-05-05T00:34:37.720Z,227.14
2023-05-05T00:35:37.723Z,224.78
2023-05-05T00:36:37.758Z,224.44
2023-05-05T00:37:37.793Z,223.71
2023-05-05T00:38:37.792Z,222.81
2023-05-05T00:39:37.868Z,223.94
2023-05-05T00:40:37.964Z,221.56
2023-05-05T00:41:38.037Z,221.43
2023-05-05T00:42:38.116Z,220.20
2023-05-05T00:43:38.182Z,217.93
2023-05-05T00:44:38.281Z,217.73
2023-05-05T00:45:38.352Z,219.61
2023-05-05T00:46:38.455Z,217.91
2023-05-05T00:47:38.544Z,216.60
2023-05-05T00:48:38.594Z,218.33
2023-05-05T00:49:38.699Z,217.46
2023-05-05T00:50:38.743Z,218.66
2023-05-05T00:51:38.810Z,219.48
2023-05-05T00:52:38.913Z,217.38
2023-05-05T00:53:39.008Z,216.81
2023-05-05T00:54:39.059Z,219.53
2023-05-05T00:55:39.143Z,218.72
2023-05-05T00:56:39.229Z,222.04
2023-05-05T00:57:39.290Z,221.29
2023-05-05T00:58:39.369Z,221.31
2023-05-05T00:59:39.464Z,221.97
2023-05-05T01:00:39.532Z,220.57
2023-05-05T01:01:39.656Z,223.23
2023-05-05T01:02:39.781Z,222.14
2023-05-05T01:03:39.855Z,224.64
2023-05-05T01:04:39.827Z,222.66
2023-05-05T01:05:39.922Z,223.43
2023-05-05T01:06:39.993Z,223.72
2023-05-05T01:07:40.066Z,224.77
2023-05-05T01:08:40.124Z,227.87
2023-05-05T01:09:40.197Z,226.26
2023-05-05T01:10:40.280Z,227.12
2023-05-05T01:11:40.379Z,228.18
2023-05-05T01:12:40.716Z,227.34
2023-05-05T01:13:40.512Z,228.63
2023-05-05T01:14:40.591Z,229.12
2023-05-05T01:15:40.684Z,230.13
2023-05-05T01:16:40.805Z,229.99
2023-05-05T01:17:40.891Z,229.36
2023-05-05T01:18:40.928Z,230.52
2023-05-05T01:19:41.033Z,232.29
2023-05-05T01:20:41.091Z,231.29
2023-05-05T01:21:41.180Z,233.68
2023-05-05T01:22:41.254Z,233.08
2023-05-05T01:23:41.308Z,234.29
2023-05-05T01:24:41.417Z,232.32
2023-05-05T01:25:41.480Z,232.67
2023-05-05T01:26:41.555Z,234.65
2023-05-05T01:27:41.632Z,235.03
2023-05-05T01:28:41.731Z,236.17
2023-05-05T01:29:41.798Z,234.41
2023-05-05T01:30:41.872Z,236.91
2023-05-05T01:31:42.029Z,235.17
2023-05-05T01:32:42.067Z,237.03
2023-05-05T01:33:42.114Z,235.63
2023-05-05T01:34:42.174Z,237.68
2023-05-05T01:35:42.250Z,236.18
2023-05-05T01:36:42.424Z,237.29
2023-05-05T01:37:42.418Z,237.35
2023-05-05T01:38:42.505Z,237.40
2023-05-05T01:39:42.563Z,239.02
2023-05-05T01:40:42.652Z,238.12
2023-05-05T01:41:42.737Z,239.18
2023-05-05T01:42:42.809Z,240.34
2023-05-05T01:43:42.920Z,239.26
2023-05-05T01:44:42.960Z,239.06
2023-05-05T01:45:43.015Z,239.26
2023-05-05T01:46:42.988Z,239.47
2023-05-05T01:47:43.040Z,239.64
2023-05-05T01:48:43.070Z,240.63
2023-05-05T01:49:43.052Z,241.65
2023-05-05T01:50:43.069Z,238.12
2023-05-05T01:51:43.092Z,242.66
2023-05-05T01:52:43.125Z,241.50
2023-05-05T01:53:43.138Z,241.70
2023-05-05T01:54:43.202Z,241.92
2023-05-05T01:55:43.267Z,242.37
2023-05-05T01:56:43.338Z,242.60
2023-05-05T01:57:43.412Z,242.67
2023-05-05T01:58:43.534Z,242.68
2023-05-05T01:59:43.560Z,244.13
2023-05-05T02:00:43.663Z,242.53
2023-05-05T02:01:43.785Z,242.35
2023-05-05T02:02:43.826Z,245.01
2023-05-05T02:03:43.856Z,243.62
2023-05-05T02:04:43.948Z,244.23
2023-05-05T02:05:44.081Z,246.55
2023-05-05T02:06:44.104Z,243.55
2023-05-05T02:07:44.215Z,243.35
2023-05-05T02:08:44.258Z,243.60
2023-05-05T02:09:44.343Z,246.07
2023-05-05T02:10:44.442Z,246.00
2023-05-05T02:11:44.499Z,244.98
2023-05-05T02:12:44.718Z,248.32
2023-05-05T02:13:44.722Z,248.14
2023-05-05T02:14:44.723Z,247.09
2023-05-05T02:15:44.872Z,247.36
2023-05-05T02:16:44.871Z,246.70
2023-05-05T02:17:44.969Z,248.58
2023-05-05T02:18:45.040Z,247.15
2023-05-05T02:19:45.168Z,248.07
2023-05-05T02:20:45.187Z,245.50
2023-05-05T02:21:45.265Z,246.92
2023-05-05T02:22:45.336Z,248.27
2023-05-05T02:23:45.406Z,248.21
2023-05-05T02:24:45.505Z,246.61
2023-05-05T02:25:45.578Z,249.06
2023-05-05T02:26:45.654Z,247.91
2023-05-05T02:27:45.753Z,246.46
2023-05-05T02:28:45.828Z,248.30
2023-05-05T02:29:45.895Z,246.02
2023-05-05T02:30:45.959Z,249.09
2023-05-05T02:31:46.129Z,248.17
2023-05-05T02:32:46.169Z,250.00
2023-05-05T02:33:46.183Z,248.77
2023-05-05T02:34:46.261Z,248.89
2023-05-05T02:35:46.346Z,247.16
2023-05-05T02:36:46.416Z,245.72
2023-05-05T02:37:46.485Z,248.45
2023-05-05T02:38:46.628Z,248.23
2023-05-05T02:39:46.659Z,248.70
2023-05-05T02:40:46.765Z,249.15
2023-05-05T02:41:46.838Z,246.39
2023-05-05T02:42:46.969Z,246.17
2023-05-05T02:43:47.006Z,248.30
2023-05-05T02:44:47.079Z,246.08
2023-05-05T02:45:47.141Z,244.46
2023-05-05T02:46:47.307Z,246.46
2023-05-05T02:47:47.319Z,245.77
2023-05-05T02:48:47.426Z,239.47
2023-05-05T02:49:47.528Z,240.45
2023-05-05T02:50:47.589Z,241.29
2023-05-05T02:51:47.611Z,238.05
2023-05-05T02:52:47.725Z,237.87
2023-05-05T02:53:48.737Z,234.29
2023-05-05T02:54:47.874Z,231.82
2023-05-05T02:55:47.950Z,231.11
2023-05-05T02:56:48.020Z,228.95
2023-05-05T02:57:48.087Z,226.07
2023-05-05T02:58:48.175Z,226.98
2023-05-05T02:59:48.251Z,225.15
2023-05-05T03:00:48.326Z,226.35
2023-05-05T03:01:48.402Z,226.39
2023-05-05T03:02:48.467Z,222.21
2023-05-05T03:03:48.582Z,221.68
2023-05-05T03:04:48.400Z,219.23
2023-05-05T03:05:48.432Z,218.65
2023-05-05T03:06:48.476Z,217.16
2023-05-05T03:07:48.479Z,215.48
2023-05-05T03:08:48.521Z,215.64
2023-05-05T03:09:48.544Z,215.64
2023-05-05T03:10:48.544Z,214.11
2023-05-05T03:11:48.555Z,212.33
2023-05-05T03:12:48.631Z,213.42
2023-05-05T03:13:48.643Z,209.61
2023-05-05T03:14:48.655Z,208.51
2023-05-05T03:15:48.672Z,208.66
2023-05-05T03:16:48.663Z,207.89
2023-05-05T03:17:48.747Z,208.34
2023-05-05T03:18:48.692Z,205.54
2023-05-05T03:19:48.708Z,203.10
2023-05-05T03:20:48.736Z,203.18
2023-05-05T03:21:48.763Z,201.51
2023-05-05T03:22:48.817Z,202.74
2023-05-05T03:23:48.906Z,200.78
2023-05-05T03:24:48.984Z,200.52
2023-05-05T03:25:49.122Z,199.82
2023-05-05T03:26:49.162Z,197.07
2023-05-05T03:27:49.254Z,197.69
2023-05-05T03:28:49.326Z,196.65
2023-05-05T03:29:49.356Z,196.70
2023-05-05T03:30:49.404Z,196.72
2023-05-05T03:31:49.419Z,194.54
2023-05-05T03:32:49.443Z,193.74
2023-05-05T03:33:49.431Z,192.45
2023-05-05T03:34:49.443Z,191.33
2023-05-05T03:35:49.469Z,191.72
2023-05-05T03:36:49.506Z,188.34
2023-05-05T03:37:49.542Z,186.80
2023-05-05T03:38:49.612Z,187.87
2023-05-05T03:39:49.693Z,186.19
2023-05-05T03:40:49.715Z,186.29
2023-05-05T03:41:49.798Z,186.25
2023-05-05T03:42:49.751Z,186.28
2023-05-05T03:43:49.756Z,184.50
2023-05-05T03:44:49.786Z,186.04
2023-05-05T03:45:49.815Z,183.48
2023-05-05T03:46:49.833Z,183.94
2023-05-05T03:47:49.893Z,182.73
2023-05-05T03:48:49.901Z,179.75
2023-05-05T03:49:50.002Z,182.12
2023-05-05T03:50:50.103Z,179.24
2023-05-05T03:51:50.173Z,180.45
2023-05-05T03:52:50.256Z,179.62
2023-05-05T03:53:50.349Z,178.49
2023-05-05T03:54:50.426Z,171.47
2023-05-05T03:55:50.532Z,156.60
2023-05-05T03:56:50.604Z,146.51
2023-05-05T03:57:50.700Z,123.60
2023-05-05T03:58:50.774Z,110.71
2023-05-05T03:59:50.879Z,92.34
2023-05-05T04:00:50.989Z,76.11
2023-05-05T04:01:51.058Z,64.50
2023-05-05T04:02:51.201Z,50.56
2023-05-05T04:03:51.273Z,33.82
2023-05-05T04:04:51.271Z,25.00
2023-05-05T04:05:51.334Z,26.04
2023-05-05T04:06:51.400Z,25.00
2023-05-05T04:07:51.400Z,25.71
2023-05-05T04:08:51.446Z,25.00
2023-05-05T04:09:51.444Z,25.00
2023-05-05T04:10:51.489Z,25.49
2023-05-05T04:11:51.504Z,25.00
2023-05-05T04:12:51.652Z,25.24
2023-05-05T04:13:51.585Z,25.00
2023-05-05T04:14:51.628Z,24.73
2023-05-05T04:15:51.671Z,25.00
2023-05-05T04:16:51.688Z,25.00
2023-05-05T04:17:51.747Z,27.34
2023-05-05T04:18:51.784Z,25.00
2023-05-05T04:19:51.805Z,25.54
2023-05-05T04:20:51.865Z,25.00
2023-05-05T04:21:51.900Z,25.00
2023-05-05T04:22:52.815Z,25.48
2023-05-05T04:23:52.007Z,25.06
2023-05-05T04:24:52.041Z,27.29
2023-05-05T04:25:52.091Z,27.61
2023-05-05T04:26:52.140Z,29.67
2023-05-05T04:27:52.184Z,31.12
2023-05-05T04:28:52.226Z,34.54
2023-05-05T04:29:52.249Z,39.19
2023-05-05T04:30:52.323Z,39.23
2023-05-05T04:31:52.334Z,41.65
2023-05-05T04:32:52.435Z,48.87
2023-05-05T04:33:52.418Z,49.22
2023-05-05T04:34:52.435Z,54.01
2023-05-05T04:35:52.447Z,58.90
2023-05-05T04:36:52.475Z,65.12
2023-05-05T04:37:52.511Z,68.02
2023-05-05T04:38:52.562Z,72.84
2023-05-05T04:39:52.590Z,75.81
2023-05-05T04:40:52.616Z,76.85
2023-05-05T04:41:52.653Z,79.18
2023-05-05T04:42:52.700Z,81.14
2023-05-05T04:43:52.743Z,81.63
2023-05-05T04:44:52.772Z,80.96
2023-05-05T04:45:52.831Z,80.84
2023-05-05T04:46:52.915Z,82.53
2023-05-05T04:47:53.028Z,86.70
2023-05-05T04:48:53.002Z,89.55
2023-05-05T04:49:53.081Z,91.53
2023-05-05T04:50:53.155Z,96.25
2023-05-05T04:51:53.180Z,97.41
2023-05-05T04:52:53.259Z,100.04
2023-05-05T04:53:53.298Z,102.56
2023-05-05T04:54:53.357Z,103.39
2023-05-05T04:55:53.432Z,95.23
2023-05-05T04:56:53.432Z,89.42
2023-05-05T04:57:53.498Z,85.42
2023-05-05T04:58:53.499Z,79.60
2023-05-05T04:59:53.546Z,72.36
2023-05-05T05:00:53.565Z,71.21
2023-05-05T05:01:53.642Z,64.47
2023-05-05T05:02:53.728Z,56.38
2023-05-05T05:03:53.757Z,49.78
2023-05-05T05:04:53.722Z,43.13
2023-05-05T05:05:53.745Z,35.35
2023-05-05T05:06:53.770Z,29.30
2023-05-05T05:07:53.824Z,25.33
2023-05-05T05:08:53.864Z,25.04
2023-05-05T05:09:53.882Z,25.00
2023-05-05T05:10:53.897Z,25.00
2023-05-05T05:11:53.936Z,25.00
2023-05-05T05:12:53.983Z,26.82
2023-05-05T05:13:54.010Z,25.64
2023-05-05T05:14:54.050Z,25.91
2023-05-05T05:15:54.077Z,25.31
2023-05-05T05:16:54.271Z,22.34
2023-05-05T05:17:54.194Z,18.18
2023-05-05T05:18:54.215Z,17.16
2023-05-05T05:19:54.191Z,18.52
2023-05-05T05:20:54.228Z,19.45
2023-05-05T05:21:54.231Z,13.85
2023-05-05T05:22:54.273Z,24.96
2023-05-05T05:23:54.334Z,25.13
2023-05-05T05:24:54.319Z,25.51
2023-05-05T05:25:54.329Z,25.47
2023-05-05T05:26:54.408Z,25.64
2023-05-05T05:28:06.176Z,29.14
2023-05-05T05:28:55.428Z,29.25
2023-05-05T05:29:54.444Z,29.71
2023-05-05T05:30:54.477Z,31.54
2023-05-05T05:31:54.588Z,36.30
2023-05-05T05:32:54.551Z,43.66
2023-05-05T05:33:54.822Z,58.40
2023-05-05T05:34:54.585Z,80.50
2023-05-05T05:35:54.624Z,92.38
2023-05-05T05:36:54.626Z,79.01
2023-05-05T05:37:54.662Z,77.12
2023-05-05T05:38:54.732Z,64.77
2023-05-05T05:39:54.812Z,61.63
2023-05-05T05:40:54.793Z,72.12
2023-05-05T05:41:54.805Z,78.64
2023-05-05T05:42:54.846Z,77.81
2023-05-05T05:43:54.895Z,74.65
2023-05-05T05:44:54.913Z,56.63
2023-05-05T05:45:54.994Z,23.49
2023-05-05T05:46:55.026Z,18.57
2023-05-05T05:47:55.093Z,10.32
2023-05-05T05:48:55.089Z,25.00
2023-05-05T05:49:55.120Z,27.98
2023-05-05T05:50:55.194Z,17.59
2023-05-05T05:51:55.198Z,24.59
2023-05-05T05:52:55.226Z,26.55
2023-05-05T05:53:57.459Z,24.22
2023-05-05T05:54:55.301Z,24.22
2023-05-05T05:55:55.337Z,21.54
2023-05-05T05:56:55.374Z,12.09
2023-05-05T05:57:55.465Z,8.45
2023-05-05T05:58:55.444Z,7.58
2023-05-05T05:59:55.481Z,6.07
2023-05-05T06:00:55.512Z,15.94
2023-05-05T06:01:55.550Z,24.59
2023-05-05T06:02:55.804Z,30.20
2023-05-05T06:03:55.886Z,34.61
2023-05-05T06:04:55.854Z,40.98
2023-05-05T06:05:55.904Z,47.93
2023-05-05T06:06:56.009Z,49.49
2023-05-05T06:07:56.136Z,48.07
2023-05-05T06:08:56.143Z,38.90
2023-05-05T06:09:56.247Z,39.24
2023-05-05T06:10:56.330Z,49.60
2023-05-05T06:11:56.390Z,59.81
2023-05-05T06:12:56.492Z,49.78
2023-05-05T06:13:56.805Z,45.57
2023-05-05T06:14:56.635Z,43.85
2023-05-05T06:15:56.783Z,37.41
2023-05-05T06:16:56.798Z,41.93
2023-05-05T06:17:56.945Z,54.72
2023-05-05T06:18:56.948Z,57.81
2023-05-05T06:19:57.046Z,60.04
2023-05-05T06:20:57.130Z,63.79
2023-05-05T06:21:57.197Z,63.30
2023-05-05T06:22:57.259Z,66.92
2023-05-05T06:23:57.335Z,64.69
2023-05-05T06:24:57.395Z,61.67
2023-05-05T06:25:57.480Z,63.82
2023-05-05T06:26:57.549Z,60.15
2023-05-05T06:27:57.610Z,62.51
2023-05-05T06:28:57.858Z,66.05
2023-05-05T06:29:57.746Z,66.16
2023-05-05T06:30:57.785Z,66.93
2023-05-05T06:31:57.869Z,69.39
2023-05-05T06:32:57.839Z,73.52
2023-05-05T06:33:57.844Z,79.01
2023-05-05T06:34:57.861Z,66.50
2023-05-05T06:35:57.948Z,54.75
2023-05-05T06:36:57.897Z,31.00
2023-05-05T06:37:57.973Z,29.07
2023-05-05T06:38:58.385Z,37.54
2023-05-05T06:39:58.007Z,15.34
2023-05-05T06:40:58.001Z,20.38
2023-05-05T06:41:58.045Z,33.46
2023-05-05T06:42:58.157Z,40.07
2023-05-05T06:43:58.178Z,46.18
2023-05-05T06:44:58.154Z,54.41
2023-05-05T06:45:58.162Z,61.16
2023-05-05T06:46:58.394Z,68.02
2023-05-05T06:47:59.315Z,74.25
2023-05-05T06:48:58.307Z,83.02
2023-05-05T06:49:58.408Z,91.04
2023-05-05T06:50:58.448Z,96.68
2023-05-05T06:51:59.358Z,99.77
2023-05-05T06:52:58.558Z,104.70
2023-05-05T06:53:58.633Z,108.57
2023-05-05T06:54:58.649Z,111.16
2023-05-05T06:55:58.718Z,111.21
2023-05-05T06:56:59.573Z,91.53
2023-05-05T06:57:58.692Z,60.41
2023-05-05T06:58:58.935Z,30.02
2023-05-05T06:59:58.764Z,11.72
2023-05-05T07:00:58.790Z,6.85
2023-05-05T07:01:58.803Z,0.00
2023-05-05T07:02:58.877Z,5.98
2023-05-05T07:03:58.951Z,13.33
2023-05-05T07:04:58.934Z,25.00
2023-05-05T07:05:58.925Z,25.87
2023-05-05T07:06:58.978Z,28.25
2023-05-05T07:07:59.057Z,31.81
2023-05-05T07:08:59.126Z,34.83
2023-05-05T07:09:59.125Z,37.05
2023-05-05T07:10:59.197Z,39.58
2023-05-05T07:11:59.270Z,41.60
2023-05-05T07:12:59.658Z,43.16
2023-05-05T07:13:59.857Z,44.20
2023-05-05T07:15:04.833Z,44.77
2023-05-05T07:16:00.755Z,44.85
2023-05-05T07:16:59.657Z,44.98
2023-05-05T07:17:59.569Z,45.77
2023-05-05T07:18:59.580Z,46.38
2023-05-05T07:19:59.590Z,48.77
2023-05-05T07:20:59.644Z,50.20
2023-05-05T07:21:59.656Z,51.26
2023-05-05T07:22:59.740Z,50.38
2023-05-05T07:23:59.737Z,51.98
2023-05-05T07:24:59.734Z,53.14
2023-05-05T07:25:59.781Z,54.25
2023-05-05T07:26:59.805Z,54.48
2023-05-05T07:27:59.833Z,54.28
2023-05-05T07:28:59.888Z,54.13
2023-05-05T07:29:59.842Z,53.08
2023-05-05T07:31:00.907Z,51.46
2023-05-05T07:32:00.082Z,51.88
2023-05-05T07:33:00.005Z,51.65
2023-05-05T07:34:00.061Z,51.69
2023-05-05T07:35:00.057Z,51.71
2023-05-05T07:36:00.129Z,52.34
2023-05-05T07:37:00.157Z,51.16
2023-05-05T07:38:00.196Z,49.95
2023-05-05T07:39:00.165Z,52.35
2023-05-05T07:40:00.248Z,52.09
2023-05-05T07:41:00.231Z,49.89
2023-05-05T07:42:00.253Z,47.89
2023-05-05T07:43:00.380Z,46.00
2023-05-05T07:44:00.275Z,46.44
2023-05-05T07:45:00.311Z,45.02
2023-05-05T07:46:00.413Z,43.00
2023-05-05T07:47:00.420Z,41.54
2023-05-05T07:48:00.462Z,40.26
2023-05-05T07:49:00.397Z,37.42
2023-05-05T07:51:27.156Z,25.00
2023-05-05T07:52:25.128Z,25.00
2023-05-05T07:53:20.543Z,25.00
2023-05-05T07:54:19.530Z,25.00
2023-05-05T07:55:19.512Z,25.00
2023-05-05T07:56:21.597Z,25.00
2023-05-05T07:57:19.544Z,25.00
2023-05-05T07:58:19.550Z,24.80
2023-05-05T07:59:19.570Z,25.33
2023-05-05T08:00:19.597Z,25.00
2023-05-05T08:01:19.541Z,26.57
2023-05-05T08:02:19.667Z,25.75
2023-05-05T08:03:19.683Z,25.49
2023-05-05T08:04:19.568Z,25.00
2023-05-05T08:05:19.606Z,24.37
2023-05-05T08:06:19.596Z,26.80
2023-05-05T08:07:19.632Z,28.34
2023-05-05T08:08:19.620Z,23.57
2023-05-05T08:09:19.713Z,18.51
2023-05-05T08:10:19.667Z,10.26
2023-05-05T08:11:19.756Z,7.31
2023-05-05T08:12:19.694Z,0.00
2023-05-05T08:13:19.717Z,20.44
2023-05-05T08:14:19.734Z,25.19
2023-05-05T08:15:19.772Z,24.84
2023-05-05T08:16:19.755Z,25.00
2023-05-05T08:17:19.700Z,25.92
2023-05-05T08:18:19.801Z,26.35
2023-05-05T08:19:28.656Z,27.74
2023-05-05T08:20:20.732Z,20.43
2023-05-05T08:21:19.763Z,18.43
2023-05-05T08:22:19.776Z,17.57
2023-05-05T08:23:19.765Z,13.76
2023-05-05T08:24:19.788Z,10.42
2023-05-05T08:25:19.803Z,27.24
2023-05-05T08:26:19.790Z,31.37
2023-05-05T08:27:19.784Z,35.04
2023-05-05T08:28:19.832Z,34.59
2023-05-05T08:29:19.842Z,40.78
2023-05-05T08:30:19.862Z,42.87
2023-05-05T08:31:19.872Z,51.31
2023-05-05T08:32:19.832Z,55.69
2023-05-05T08:33:19.848Z,63.78
2023-05-05T08:34:19.974Z,104.30
2023-05-05T08:35:19.851Z,144.40
2023-05-05T08:36:19.855Z,166.93
2023-05-05T08:37:19.871Z,188.26
2023-05-05T08:38:19.893Z,213.65
2023-05-05T08:39:19.913Z,225.08
2023-05-05T08:40:19.991Z,233.18
2023-05-05T08:41:20.060Z,235.24
2023-05-05T08:42:35.651Z,235.46
2023-05-05T08:43:20.907Z,235.81
2023-05-05T08:44:19.930Z,239.97
2023-05-05T08:45:19.921Z,252.02
2023-05-05T08:46:19.948Z,271.96
2023-05-05T08:47:19.944Z,299.70
2023-05-05T08:48:19.953Z,248.48
2023-05-05T08:49:19.957Z,249.48
2023-05-05T08:50:20.094Z,246.61
2023-05-05T08:51:20.053Z,248.88
2023-05-05T08:52:20.172Z,250.00
2023-05-05T08:53:20.217Z,250.00
2023-05-05T08:54:20.262Z,248.30
2023-05-05T08:55:20.270Z,243.69
2023-05-05T08:56:20.379Z,248.52
2023-05-05T08:57:20.274Z,249.41
2023-05-05T08:58:20.274Z,251.83
2023-05-05T08:59:20.326Z,251.01
2023-05-05T09:00:20.348Z,246.60
2023-05-05T09:01:20.308Z,251.56
2023-05-05T09:02:20.388Z,249.69
2023-05-05T09:03:20.345Z,250.00
2023-05-05T09:04:20.413Z,244.41
2023-05-05T09:05:20.330Z,244.38
2023-05-05T09:06:20.388Z,244.58
2023-05-05T09:07:20.314Z,245.42
2023-05-05T09:08:20.329Z,249.29
2023-05-05T09:09:20.377Z,257.41
2023-05-05T09:10:20.336Z,270.61
2023-05-05T09:11:20.340Z,252.53
2023-05-05T09:12:20.316Z,252.59
2023-05-05T09:13:20.403Z,252.94
2023-05-05T09:14:20.337Z,254.78
2023-05-05T09:15:20.314Z,253.44
2023-05-05T09:16:20.339Z,249.88
2023-05-05T09:17:20.323Z,248.38
2023-05-05T09:18:20.330Z,243.61
2023-05-05T09:19:20.342Z,243.70
2023-05-05T09:20:20.335Z,241.15
2023-05-05T09:21:20.372Z,242.57
2023-05-05T09:22:20.523Z,245.00
2023-05-05T09:23:20.523Z,247.27
2023-05-05T09:24:20.570Z,248.82
2023-05-05T09:25:20.683Z,249.68
2023-05-05T09:26:20.688Z,249.69
2023-05-05T09:27:20.727Z,247.55
2023-05-05T09:28:20.928Z,249.66
2023-05-05T09:29:20.894Z,250.00
2023-05-05T09:30:20.942Z,247.66
2023-05-05T09:31:21.078Z,241.27
2023-05-05T09:32:21.057Z,239.99
2023-05-05T09:33:21.146Z,238.37
2023-05-05T09:34:21.197Z,238.10
2023-05-05T09:35:21.205Z,238.04
2023-05-05T09:36:21.277Z,238.19
2023-05-05T09:37:21.218Z,239.47
2023-05-05T09:38:21.339Z,241.83
2023-05-05T09:39:21.192Z,244.15
2023-05-05T09:40:21.214Z,250.31
2023-05-05T09:41:21.187Z,248.59
2023-05-05T09:42:21.181Z,249.38
2023-05-05T09:43:21.238Z,250.00
2023-05-05T09:44:21.192Z,249.79
2023-05-05T09:45:21.383Z,249.59
2023-05-05T09:46:21.357Z,249.85
2023-05-05T09:47:29.421Z,248.87
2023-05-05T09:48:23.294Z,241.10
2023-05-05T09:49:21.462Z,217.39
2023-05-05T09:50:21.352Z,155.32
2023-05-05T09:51:21.376Z,128.20
2023-05-05T09:52:21.351Z,128.13
2023-05-05T09:53:21.330Z,112.81
2023-05-05T09:54:21.413Z,134.63
2023-05-05T09:55:21.343Z,142.21
2023-05-05T09:56:21.346Z,134.25
2023-05-05T09:57:21.382Z,102.88
2023-05-05T09:58:21.491Z,87.10
2023-05-05T09:59:21.503Z,97.20
2023-05-05T10:00:21.406Z,56.54
2023-05-05T10:01:21.415Z,29.75
2023-05-05T10:02:21.416Z,0.00
2023-05-05T10:03:21.408Z,0.00
2023-05-05T10:04:21.509Z,0.00
2023-05-05T10:05:21.456Z,0.00
2023-05-05T10:06:21.398Z,0.00
2023-05-05T10:07:21.383Z,0.00
2023-05-05T10:08:21.406Z,0.00
2023-05-05T10:09:21.429Z,0.00
2023-05-05T10:10:21.523Z,0.00
2023-05-05T10:11:21.401Z,21.82
2023-05-05T10:12:21.389Z,25.86
2023-05-05T10:13:21.401Z,36.32
2023-05-05T10:14:21.436Z,39.77
2023-05-05T10:15:21.482Z,33.52
2023-05-05T10:16:21.585Z,46.53
2023-05-05T10:17:21.588Z,31.45
2023-05-05T10:18:21.687Z,25.32
2023-05-05T10:19:21.726Z,12.16
2023-05-05T10:20:21.656Z,26.33
2023-05-05T10:21:21.660Z,31.30
2023-05-05T10:22:21.663Z,33.62
2023-05-05T10:23:21.626Z,44.49
2023-05-05T10:24:21.633Z,22.88
2023-05-05T10:25:22.243Z,30.82
2023-05-05T10:26:21.732Z,45.24
2023-05-05T10:27:21.676Z,56.70
2023-05-05T10:28:21.667Z,64.04
2023-05-05T10:29:21.711Z,51.02
2023-05-05T10:30:21.777Z,67.98
2023-05-05T10:31:26.382Z,76.88
2023-05-05T10:32:51.102Z,77.19
2023-05-05T10:34:21.855Z,77.31
2023-05-05T10:35:21.804Z,80.17
2023-05-05T10:36:21.786Z,85.30
2023-05-05T10:37:21.831Z,101.27
2023-05-05T10:38:22.166Z,127.11
2023-05-05T10:39:21.866Z,116.88
2023-05-05T10:40:21.801Z,84.50
2023-05-05T10:41:21.760Z,70.46
2023-05-05T10:42:21.879Z,58.52
2023-05-05T10:43:21.772Z,48.92
2023-05-05T10:44:21.769Z,65.96
2023-05-05T10:45:21.771Z,66.26
2023-05-05T10:46:21.767Z,67.62
2023-05-05T10:47:21.869Z,67.78
2023-05-05T10:48:21.749Z,72.00
2023-05-05T10:49:21.748Z,88.67
2023-05-05T10:50:21.778Z,99.13
2023-05-05T10:51:35.291Z,105.95
2023-05-05T10:52:22.738Z,106.12
2023-05-05T10:53:21.748Z,107.17
2023-05-05T10:54:21.792Z,108.80
2023-05-05T10:55:21.752Z,108.15
2023-05-05T10:56:21.757Z,94.39
2023-05-05T10:57:21.738Z,63.63
2023-05-05T10:58:22.808Z,40.54
2023-05-05T10:59:21.733Z,22.92
2023-05-05T11:00:21.722Z,26.08
2023-05-05T11:01:21.776Z,29.50
2023-05-05T11:02:21.733Z,16.47
2023-05-05T11:03:21.810Z,31.18
2023-05-05T11:04:21.754Z,38.64
2023-05-05T11:05:21.783Z,30.18
2023-05-05T11:06:21.733Z,34.37
2023-05-05T11:07:21.775Z,42.22
2023-05-05T11:08:21.740Z,51.53
2023-05-05T11:09:21.758Z,70.24
2023-05-05T11:10:21.764Z,86.05
2023-05-05T11:11:21.740Z,86.72
2023-05-05T11:12:21.773Z,86.04
2023-05-05T11:13:21.802Z,91.48
2023-05-05T11:14:21.823Z,91.65
2023-05-05T11:15:21.765Z,94.78
2023-05-05T11:16:22.770Z,94.91
2023-05-05T11:17:21.784Z,96.28
2023-05-05T11:18:21.772Z,97.57
2023-05-05T11:19:21.777Z,103.22
2023-05-05T11:20:21.801Z,109.86
2023-05-05T11:21:21.776Z,115.58
2023-05-05T11:22:21.812Z,116.95
2023-05-05T11:23:21.793Z,122.38
2023-05-05T11:24:21.788Z,124.62
2023-05-05T11:25:22.770Z,132.20
2023-05-05T11:26:21.786Z,138.37
2023-05-05T11:27:21.787Z,141.74
2023-05-05T11:28:21.831Z,135.62
2023-05-05T11:29:21.888Z,138.52
2023-05-05T11:30:21.928Z,138.79
2023-05-05T11:31:21.926Z,140.79
2023-05-05T11:32:21.878Z,132.92
2023-05-05T11:33:21.895Z,137.52
2023-05-05T11:34:21.867Z,139.45
2023-05-05T11:35:21.877Z,144.93
2023-05-05T11:36:21.871Z,152.04
2023-05-05T11:37:21.850Z,154.13
2023-05-05T11:38:21.833Z,156.21
2023-05-05T11:39:21.869Z,150.56
2023-05-05T11:40:21.855Z,148.26
2023-05-05T11:41:21.840Z,147.65
2023-05-05T11:42:21.899Z,136.23
2023-05-05T11:43:21.954Z,133.79
2023-05-05T11:44:21.990Z,136.38
2023-05-05T11:45:22.083Z,121.75
2023-05-05T11:46:22.102Z,124.59
2023-05-05T11:47:22.142Z,113.77
2023-05-05T11:48:22.175Z,91.99
2023-05-05T11:49:22.232Z,100.17
2023-05-05T11:50:22.268Z,107.44
2023-05-05T11:51:22.274Z,107.52
2023-05-05T11:52:22.238Z,107.84
2023-05-05T11:53:22.278Z,108.28
2023-05-05T11:54:22.233Z,109.65
2023-05-05T11:55:22.244Z,110.08
2023-05-05T11:56:22.245Z,114.58
2023-05-05T11:57:22.206Z,115.33
2023-05-05T11:58:22.216Z,120.15
2023-05-05T11:59:22.783Z,124.06
2023-05-05T12:00:22.184Z,132.07
2023-05-05T12:01:22.180Z,131.49
2023-05-05T12:02:22.301Z,135.16
2023-05-05T12:03:22.393Z,136.63
2023-05-05T12:04:22.334Z,144.15
2023-05-05T12:05:22.384Z,142.28
2023-05-05T12:06:22.392Z,149.38
2023-05-05T12:07:22.473Z,153.87
2023-05-05T12:08:22.489Z,152.35
2023-05-05T12:09:22.536Z,142.82
2023-05-05T12:10:22.574Z,147.94
2023-05-05T12:11:22.624Z,154.37
2023-05-05T12:12:22.676Z,156.48
2023-05-05T12:13:22.779Z,150.57
2023-05-05T12:14:22.772Z,152.69
2023-05-05T12:15:22.815Z,154.29
2023-05-05T12:16:22.882Z,154.18
2023-05-05T12:17:22.996Z,157.35
2023-05-05T12:18:22.936Z,153.15
2023-05-05T12:19:23.003Z,149.59
2023-05-05T12:20:23.025Z,156.92
2023-05-05T12:21:23.062Z,152.04
2023-05-05T12:22:23.114Z,147.54
2023-05-05T12:23:23.210Z,146.54
2023-05-05T12:24:23.208Z,145.44
2023-05-05T12:25:23.248Z,143.19
2023-05-05T12:26:23.279Z,145.56
2023-05-05T12:27:23.353Z,144.41
2023-05-05T12:28:23.390Z,139.32
2023-05-05T12:29:23.445Z,140.26
2023-05-05T12:30:23.534Z,126.14
2023-05-05T12:31:23.581Z,127.69
2023-05-05T12:32:23.619Z,126.20
2023-05-05T12:33:23.634Z,119.60
2023-05-05T12:34:23.749Z,112.88
2023-05-05T12:35:23.747Z,113.52
2023-05-05T12:36:23.777Z,106.43
2023-05-05T12:37:23.843Z,109.68
2023-05-05T12:38:23.875Z,106.86
2023-05-05T12:39:23.923Z,79.39
2023-05-05T12:40:23.974Z,65.32
2023-05-05T12:41:24.019Z,40.66
2023-05-05T12:42:24.062Z,26.08